createdAt,value
2017-10-12T00:01:10.195Z,7.00
2017-10-12T00:03:37.738Z,6.43
2017-10-12T00:06:05.253Z,6.60
2017-10-12T00:08:33.602Z,6.60
2017-10-12T00:11:01.144Z,7.80
2017-10-12T00:13:28.893Z,7.20
2017-10-12T00:15:56.731Z,6.30
2017-10-12T00:18:25.030Z,6.67
2017-10-12T00:20:52.571Z,6.57
2017-10-12T00:23:20.909Z,7.20
2017-10-12T00:25:48.426Z,6.90
2017-10-12T00:28:15.995Z,6.70
2017-10-12T00:30:43.513Z,6.70
2017-10-12T00:33:11.826Z,7.50
2017-10-12T00:35:40.110Z,7.13
2017-10-12T00:38:07.667Z,6.90
2017-10-12T00:40:35.215Z,7.33
2017-10-12T00:43:02.743Z,7.70
2017-10-12T00:45:31.068Z,7.57
2017-10-12T00:47:58.619Z,7.07
2017-10-12T00:50:27.347Z,7.80
2017-10-12T00:52:54.881Z,7.10
2017-10-12T00:55:22.414Z,6.97
2017-10-12T00:57:50.044Z,7.10
2017-10-12T01:00:18.357Z,7.60
2017-10-12T01:02:45.872Z,8.60
2017-10-12T01:05:14.170Z,8.73
2017-10-12T01:07:42.081Z,7.60
2017-10-12T01:10:09.633Z,8.60
2017-10-12T01:12:37.182Z,8.33
2017-10-12T01:15:04.751Z,7.10
2017-10-12T01:17:32.305Z,8.23
2017-10-12T01:19:59.851Z,7.60
2017-10-12T01:22:27.352Z,7.40
2017-10-12T01:24:55.248Z,8.03
2017-10-12T01:27:22.832Z,7.50
2017-10-12T01:29:50.340Z,7.93
2017-10-12T01:32:18.648Z,6.90
2017-10-12T01:34:46.197Z,8.57
2017-10-12T01:37:14.198Z,8.30
2017-10-12T01:39:41.710Z,8.40
2017-10-12T01:42:09.664Z,9.67
2017-10-12T01:44:37.201Z,8.80
2017-10-12T01:47:04.729Z,8.93
2017-10-12T01:49:32.580Z,9.43
2017-10-12T01:52:00.109Z,8.57
2017-10-12T01:54:27.680Z,8.93
2017-10-12T01:56:55.997Z,9.73
2017-10-12T01:59:23.525Z,8.47
2017-10-12T02:01:51.085Z,8.43
2017-10-12T02:04:18.634Z,8.57
2017-10-12T02:06:47.224Z,8.20
2017-10-12T02:09:14.755Z,8.00
2017-10-12T02:11:42.273Z,8.63
2017-10-12T02:14:10.208Z,8.60
2017-10-12T02:16:38.505Z,8.10
2017-10-12T02:19:06.019Z,8.60
2017-10-12T02:21:33.531Z,8.60
2017-10-12T02:24:01.446Z,8.30
2017-10-12T02:26:28.963Z,7.87
2017-10-12T02:28:56.489Z,7.60
2017-10-12T02:31:24.821Z,10.80
2017-10-12T02:33:52.355Z,10.17
2017-10-12T02:36:19.934Z,9.50
2017-10-12T02:38:47.527Z,8.47
2017-10-12T02:41:16.125Z,9.50
2017-10-12T02:43:44.439Z,9.60
2017-10-12T02:46:11.997Z,9.30
2017-10-12T02:48:39.542Z,9.50
2017-10-12T02:51:07.168Z,9.07
2017-10-12T02:53:35.505Z,8.90
2017-10-12T02:56:03.050Z,9.67
2017-10-12T02:58:30.884Z,9.07
2017-10-12T03:00:58.442Z,8.73
2017-10-12T03:03:26.725Z,9.10
2017-10-12T03:05:54.269Z,8.73
2017-10-12T03:08:22.564Z,8.33
2017-10-12T03:10:50.149Z,8.70
2017-10-12T03:13:17.694Z,9.43
2017-10-12T03:15:45.542Z,9.10
2017-10-12T03:18:13.075Z,9.50
2017-10-12T03:20:40.638Z,8.57
2017-10-12T03:23:08.951Z,8.40
2017-10-12T03:25:36.494Z,8.83
2017-10-12T03:28:04.059Z,8.70
2017-10-12T03:30:31.655Z,8.60
2017-10-12T03:32:59.494Z,8.30
2017-10-12T03:35:27.017Z,8.50
2017-10-12T03:37:55.401Z,8.70
2017-10-12T03:40:23.777Z,8.30
2017-10-12T03:42:51.325Z,9.10
2017-10-12T03:45:18.876Z,9.27
2017-10-12T03:47:46.464Z,9.33
2017-10-12T03:50:14.383Z,9.00
2017-10-12T03:52:41.901Z,8.07
2017-10-12T03:55:09.447Z,8.37
2017-10-12T03:57:37.798Z,8.70
2017-10-12T04:00:05.328Z,9.20
2017-10-12T04:02:32.884Z,8.30
2017-10-12T04:05:00.414Z,8.70
2017-10-12T04:07:28.398Z,9.17
2017-10-12T04:09:55.927Z,9.17
2017-10-12T04:12:24.206Z,7.40
2017-10-12T04:14:51.765Z,8.13
2017-10-12T04:17:19.404Z,7.53
2017-10-12T04:19:46.953Z,8.53
2017-10-12T04:22:14.472Z,8.57
2017-10-12T04:24:43.025Z,8.40
2017-10-12T04:27:10.549Z,8.97
2017-10-12T04:29:38.077Z,8.23
2017-10-12T04:32:05.631Z,8.00
2017-10-12T04:34:33.226Z,9.00
2017-10-12T04:37:00.737Z,8.93
2017-10-12T04:39:28.275Z,8.77
2017-10-12T04:41:56.865Z,8.83
2017-10-12T04:44:24.425Z,9.40
2017-10-12T04:46:52.045Z,9.27
2017-10-12T04:49:19.597Z,9.20
2017-10-12T04:51:47.162Z,9.33
2017-10-12T04:54:14.731Z,9.07
2017-10-12T04:56:42.321Z,8.43
2017-10-12T04:59:10.173Z,9.10
2017-10-12T05:01:38.475Z,8.70
2017-10-12T05:04:06.008Z,9.33
2017-10-12T05:06:34.336Z,8.30
2017-10-12T05:09:01.856Z,8.67
2017-10-12T05:11:29.416Z,8.20
2017-10-12T05:13:56.968Z,9.07
2017-10-12T05:16:25.532Z,9.73
2017-10-12T05:18:53.052Z,8.13
2017-10-12T05:21:20.612Z,7.87
2017-10-12T05:23:48.196Z,9.03
2017-10-12T05:26:15.757Z,8.87
2017-10-12T05:28:43.301Z,8.60
2017-10-12T05:31:10.829Z,7.37
2017-10-12T05:33:38.370Z,8.57
2017-10-12T05:36:05.926Z,7.37
2017-10-12T05:38:33.522Z,8.23
2017-10-12T05:41:01.343Z,8.13
2017-10-12T05:43:29.637Z,6.53
2017-10-12T05:45:57.164Z,6.93
2017-10-12T05:48:24.735Z,7.47
2017-10-12T05:50:52.260Z,6.37
2017-10-12T05:53:19.822Z,5.70
2017-10-12T05:55:47.378Z,6.50
2017-10-12T05:58:15.310Z,7.00
2017-10-12T06:00:43.132Z,5.90
2017-10-12T06:03:10.655Z,6.17
2017-10-12T06:05:40.005Z,6.00
2017-10-12T06:08:08.334Z,5.50
2017-10-12T06:10:35.886Z,7.40
2017-10-12T06:13:03.420Z,6.17
2017-10-12T06:15:31.217Z,5.40
2017-10-12T06:17:58.970Z,5.73
2017-10-12T06:20:26.492Z,5.77
2017-10-12T06:22:54.084Z,5.33
2017-10-12T06:25:21.704Z,5.50
2017-10-12T06:27:50.060Z,5.23
2017-10-12T06:30:17.593Z,5.23
2017-10-12T06:32:45.411Z,5.77
2017-10-12T06:35:13.016Z,4.93
2017-10-12T06:37:40.548Z,5.23
2017-10-12T06:40:08.108Z,5.53
2017-10-12T06:42:35.625Z,5.60
2017-10-12T06:45:03.160Z,5.60
2017-10-12T06:47:30.705Z,5.97
2017-10-12T06:49:58.624Z,5.93
2017-10-12T06:52:26.929Z,6.57
2017-10-12T06:54:54.482Z,6.40
2017-10-12T06:57:22.025Z,5.90
2017-10-12T06:59:49.561Z,5.33
2017-10-12T07:02:17.917Z,5.80
2017-10-12T07:04:45.463Z,5.60
2017-10-12T07:07:13.282Z,5.30
2017-10-12T07:09:40.857Z,6.13
2017-10-12T07:12:08.428Z,5.87
2017-10-12T07:14:35.962Z,6.30
2017-10-12T07:17:03.488Z,5.40
2017-10-12T07:19:31.048Z,5.93
2017-10-12T07:21:58.595Z,6.10
2017-10-12T07:24:26.409Z,6.03
2017-10-12T07:26:53.921Z,5.47
2017-10-12T07:29:21.479Z,5.47
2017-10-12T07:31:49.021Z,5.10
2017-10-12T07:34:16.557Z,6.23
2017-10-12T07:36:44.178Z,6.23
2017-10-12T07:39:12.497Z,6.47
2017-10-12T07:41:40.434Z,6.70
2017-10-12T07:44:08.725Z,6.80
2017-10-12T07:46:36.300Z,5.63
2017-10-12T07:49:04.024Z,7.53
2017-10-12T07:51:31.552Z,6.60
2017-10-12T07:53:59.092Z,6.53
2017-10-12T07:56:26.654Z,6.60
2017-10-12T07:58:54.481Z,6.20
2017-10-12T08:01:22.007Z,6.17
2017-10-12T08:03:49.584Z,5.43
2017-10-12T08:06:17.953Z,7.30
2017-10-12T08:08:46.560Z,5.40
2017-10-12T08:11:14.094Z,6.37
2017-10-12T08:13:41.622Z,5.90
2017-10-12T08:16:09.729Z,5.70
2017-10-12T08:18:38.114Z,6.60
2017-10-12T08:21:06.436Z,5.80
2017-10-12T08:23:33.995Z,4.23
2017-10-12T08:26:01.538Z,3.47
2017-10-12T08:28:29.117Z,3.77
2017-10-12T08:30:56.643Z,4.27
2017-10-12T08:33:24.503Z,3.83
2017-10-12T08:35:52.061Z,3.93
2017-10-12T08:38:20.405Z,3.17
2017-10-12T08:40:47.954Z,3.50
2017-10-12T08:43:15.494Z,3.37
2017-10-12T08:45:43.244Z,3.33
2017-10-12T08:48:10.772Z,3.50
2017-10-12T08:50:39.371Z,3.27
2017-10-12T08:53:07.897Z,3.63
2017-10-12T08:55:35.422Z,3.73
2017-10-12T08:58:02.998Z,3.57
2017-10-12T09:00:30.529Z,3.60
2017-10-12T09:02:58.103Z,3.50
2017-10-12T09:05:25.713Z,2.83
2017-10-12T09:07:53.511Z,3.20
2017-10-12T09:10:21.056Z,2.40
2017-10-12T09:12:49.369Z,3.00
2017-10-12T09:15:17.022Z,2.80
2017-10-12T09:17:44.565Z,3.10
2017-10-12T09:20:12.132Z,2.93
2017-10-12T09:22:39.703Z,3.70
2017-10-12T09:25:07.673Z,3.07
2017-10-12T09:27:35.991Z,3.10
2017-10-12T09:30:03.517Z,2.70
2017-10-12T09:32:31.061Z,2.80
2017-10-12T09:34:58.595Z,2.50
2017-10-12T09:37:26.157Z,2.80
2017-10-12T09:39:53.712Z,3.30
2017-10-12T09:42:21.578Z,3.60
2017-10-12T09:44:49.098Z,3.13
2017-10-12T09:47:16.639Z,3.37
2017-10-12T09:49:44.223Z,3.13
2017-10-12T09:52:11.731Z,3.33
2017-10-12T09:54:39.299Z,3.50
2017-10-12T09:57:06.866Z,3.50
2017-10-12T09:59:34.815Z,3.40
2017-10-12T10:02:02.354Z,3.43
2017-10-12T10:04:30.650Z,3.63
2017-10-12T10:06:58.279Z,3.23
2017-10-12T10:09:26.610Z,3.23
2017-10-12T10:11:54.171Z,3.40
2017-10-12T10:14:21.710Z,3.30
2017-10-12T10:16:49.624Z,3.37
2017-10-12T10:19:17.193Z,2.60
2017-10-12T10:21:44.742Z,3.53
2017-10-12T10:24:12.331Z,3.30
2017-10-12T10:26:39.887Z,3.23
2017-10-12T10:29:08.265Z,3.53
2017-10-12T10:31:35.807Z,3.80
2017-10-12T10:34:03.736Z,3.00
2017-10-12T10:36:31.314Z,2.90
2017-10-12T10:38:58.885Z,2.80
2017-10-12T10:41:26.473Z,3.30
2017-10-12T10:43:54.114Z,3.20
2017-10-12T10:46:21.718Z,5.23
2017-10-12T10:48:49.246Z,2.30
2017-10-12T10:51:17.838Z,2.50
2017-10-12T10:53:46.124Z,2.50
2017-10-12T10:56:13.715Z,2.30
2017-10-12T10:58:41.261Z,2.60
2017-10-12T11:01:08.799Z,2.13
2017-10-12T11:03:36.360Z,2.10
2017-10-12T11:06:03.956Z,2.23
2017-10-12T11:08:31.800Z,2.23
2017-10-12T11:10:59.340Z,1.83
2017-10-12T11:13:26.892Z,2.40
2017-10-12T11:15:55.252Z,2.17
2017-10-12T11:18:22.759Z,2.17
2017-10-12T11:20:50.389Z,2.33
2017-10-12T11:23:18.688Z,2.00
2017-10-12T11:25:46.508Z,1.63
2017-10-12T11:28:14.027Z,1.50
2017-10-12T11:30:41.568Z,1.33
2017-10-12T11:33:09.226Z,1.80
2017-10-12T11:35:36.771Z,1.40
2017-10-12T11:38:05.076Z,2.17
2017-10-12T11:40:33.177Z,1.70
2017-10-12T11:43:00.975Z,2.33
2017-10-12T11:45:29.273Z,1.07
2017-10-12T11:47:56.805Z,1.90
2017-10-12T11:50:25.124Z,2.47
2017-10-12T11:52:52.661Z,1.87
2017-10-12T11:55:20.217Z,1.90
2017-10-12T11:57:47.781Z,1.87
2017-10-12T12:00:15.641Z,2.13
2017-10-12T12:02:43.231Z,1.93
2017-10-12T12:05:10.778Z,1.83
2017-10-12T12:07:38.317Z,2.00
2017-10-12T12:10:05.851Z,1.60
2017-10-12T12:12:34.237Z,1.90
2017-10-12T12:15:02.532Z,1.90
2017-10-12T12:17:30.440Z,1.80
2017-10-12T12:19:57.984Z,1.90
2017-10-12T12:22:25.544Z,1.70
2017-10-12T12:24:54.092Z,1.57
2017-10-12T12:27:21.595Z,2.00
2017-10-12T12:29:49.164Z,1.60
2017-10-12T12:32:16.956Z,1.40
2017-10-12T12:34:46.378Z,1.50
2017-10-12T12:37:13.914Z,1.90
2017-10-12T12:39:41.455Z,1.47
2017-10-12T12:42:09.061Z,1.60
2017-10-12T12:44:36.635Z,1.97
2017-10-12T12:47:04.184Z,2.17
2017-10-12T12:49:31.746Z,1.73
2017-10-12T12:51:59.700Z,1.97
2017-10-12T12:54:27.998Z,1.60
2017-10-12T12:56:55.541Z,2.40
2017-10-12T12:59:23.125Z,1.77
2017-10-12T13:01:50.685Z,1.70
2017-10-12T13:04:18.617Z,1.67
2017-10-12T13:06:46.195Z,1.90
2017-10-12T13:09:13.730Z,1.60
2017-10-12T13:11:42.058Z,1.77
2017-10-12T13:14:09.600Z,1.50
2017-10-12T13:16:37.145Z,1.67
2017-10-12T13:19:04.710Z,1.70
2017-10-12T13:21:32.607Z,1.83
2017-10-12T13:24:00.186Z,2.03
2017-10-12T13:26:27.799Z,1.40
2017-10-12T13:28:55.461Z,2.20
2017-10-12T13:31:23.023Z,1.60
2017-10-12T13:33:50.875Z,2.17
2017-10-12T13:36:18.432Z,1.70
2017-10-12T13:38:46.016Z,1.70
2017-10-12T13:41:13.667Z,2.30
2017-10-12T13:43:41.216Z,2.33
2017-10-12T13:46:09.001Z,1.83
2017-10-12T13:48:36.652Z,2.10
2017-10-12T13:51:04.590Z,2.10
2017-10-12T13:53:32.225Z,2.00
2017-10-12T13:55:59.959Z,1.73
2017-10-12T13:58:27.714Z,2.37
2017-10-12T14:00:58.467Z,2.13
2017-10-12T14:03:27.095Z,1.93
2017-10-12T14:05:54.708Z,2.30
2017-10-12T14:08:22.270Z,1.93
2017-10-12T14:10:50.193Z,1.83
2017-10-12T14:13:18.525Z,2.17
2017-10-12T14:15:46.152Z,1.60
2017-10-12T14:18:13.725Z,2.43
2017-10-12T14:20:41.221Z,2.13
2017-10-12T14:23:08.774Z,2.23
2017-10-12T14:25:36.459Z,2.27
2017-10-12T14:28:04.233Z,2.33
2017-10-12T14:30:32.404Z,2.20
2017-10-12T14:33:00.686Z,2.00
2017-10-12T14:35:28.290Z,2.30
2017-10-12T14:37:55.871Z,2.10
2017-10-12T14:40:23.418Z,2.17
2017-10-12T14:42:51.005Z,1.67
2017-10-12T14:45:18.824Z,1.77
2017-10-12T14:47:46.365Z,2.50
2017-10-12T14:50:13.896Z,2.00
2017-10-12T14:52:42.213Z,1.93
2017-10-12T14:55:09.742Z,1.87
2017-10-12T14:57:37.616Z,2.30
2017-10-12T15:00:05.205Z,3.00
2017-10-12T15:02:32.805Z,2.00
2017-10-12T15:05:01.124Z,2.10
2017-10-12T15:07:28.653Z,2.47
2017-10-12T15:09:57.343Z,2.47
2017-10-12T15:12:24.938Z,2.33
2017-10-12T15:14:52.492Z,1.97
2017-10-12T15:17:20.036Z,1.80
2017-10-12T15:19:47.602Z,2.90
2017-10-12T15:22:15.923Z,2.90
2017-10-12T15:24:43.449Z,2.20
2017-10-12T15:27:11.271Z,2.20
2017-10-12T15:29:39.539Z,2.20
2017-10-12T15:32:07.133Z,3.13
2017-10-12T15:34:34.702Z,2.30
2017-10-12T15:37:02.252Z,2.60
2017-10-12T15:39:29.816Z,2.30
2017-10-12T15:41:57.353Z,2.60
2017-10-12T15:44:24.920Z,2.57
2017-10-12T15:46:52.490Z,2.30
2017-10-12T15:49:20.470Z,2.53
2017-10-12T15:51:48.096Z,2.20
2017-10-12T15:54:16.397Z,3.20
2017-10-12T15:56:43.974Z,2.30
2017-10-12T15:59:11.537Z,2.30
2017-10-12T16:01:39.085Z,2.43
2017-10-12T16:04:06.640Z,2.70
2017-10-12T16:06:34.442Z,3.10
2017-10-12T16:09:01.975Z,2.40
2017-10-12T16:11:29.502Z,2.27
2017-10-12T16:13:57.035Z,2.60
2017-10-12T16:16:25.471Z,2.70
2017-10-12T16:18:53.031Z,2.80
2017-10-12T16:21:20.540Z,2.60
2017-10-12T16:23:48.141Z,2.73
2017-10-12T16:26:15.661Z,3.17
2017-10-12T16:28:43.541Z,3.67
2017-10-12T16:31:11.084Z,4.40
2017-10-12T16:33:39.393Z,3.53
2017-10-12T16:36:07.013Z,4.40
2017-10-12T16:38:34.578Z,2.93
2017-10-12T16:41:02.906Z,3.27
2017-10-12T16:43:30.495Z,3.57
2017-10-12T16:45:58.450Z,4.10
2017-10-12T16:48:26.027Z,4.20
2017-10-12T16:50:53.571Z,4.00
2017-10-12T16:53:21.186Z,4.30
2017-10-12T16:55:48.756Z,4.33
2017-10-12T16:58:16.411Z,5.10
2017-10-12T17:00:44.838Z,5.57
2017-10-12T17:03:12.849Z,5.37
2017-10-12T17:05:40.560Z,4.90
2017-10-12T17:08:08.892Z,5.60
2017-10-12T17:13:04.058Z,7.17
2017-10-12T17:15:31.724Z,9.10
2017-10-12T17:17:59.253Z,8.83
2017-10-12T17:20:26.870Z,6.43
2017-10-12T17:22:55.334Z,8.07
2017-10-12T17:25:23.327Z,7.10
2017-10-12T17:27:51.112Z,6.90
2017-10-12T17:30:18.830Z,6.90
2017-10-12T17:32:47.398Z,7.87
2017-10-12T17:35:16.061Z,7.07
2017-10-12T17:37:43.877Z,8.70
2017-10-12T17:40:12.430Z,8.53
2017-10-12T17:42:40.375Z,7.90
2017-10-12T17:45:08.111Z,7.83
2017-10-12T17:47:35.860Z,10.50
2017-10-12T17:50:03.651Z,11.20
2017-10-12T17:52:31.476Z,8.27
2017-10-12T17:54:59.359Z,6.83
2017-10-12T17:57:27.196Z,4.83
2017-10-12T17:59:55.276Z,5.07
2017-10-12T18:02:23.080Z,5.17
2017-10-12T18:04:51.111Z,4.87
2017-10-12T18:07:18.874Z,5.80
2017-10-12T18:09:47.316Z,6.50
2017-10-12T18:12:22.331Z,7.67
2017-10-12T18:14:43.177Z,6.73
2017-10-12T18:17:10.993Z,7.30
2017-10-12T18:19:39.042Z,7.03
2017-10-12T18:22:09.886Z,6.77
2017-10-12T18:24:38.613Z,6.53
2017-10-12T18:27:06.325Z,5.70
2017-10-12T18:29:34.467Z,6.03
2017-10-12T18:32:02.172Z,6.00
2017-10-12T18:34:30.628Z,6.70
2017-10-12T18:36:59.036Z,6.20
2017-10-12T18:39:26.638Z,6.00
2017-10-12T18:41:54.270Z,8.37
2017-10-12T18:44:21.825Z,7.17
2017-10-12T18:46:49.657Z,8.87
2017-10-12T18:49:17.994Z,9.10
2017-10-12T18:51:45.607Z,9.77
2017-10-12T18:54:13.962Z,10.90
2017-10-12T18:56:41.520Z,11.13
2017-10-12T18:59:09.386Z,9.40
2017-10-12T19:01:36.979Z,9.70
2017-10-12T19:04:04.568Z,10.47
2017-10-12T19:06:32.569Z,11.07
2017-10-12T19:09:00.078Z,10.37
2017-10-12T19:11:27.664Z,11.50
2017-10-12T19:13:55.266Z,11.13
2017-10-12T19:16:24.659Z,11.40
2017-10-12T19:18:52.615Z,11.10
2017-10-12T19:21:20.445Z,11.17
2017-10-12T19:23:48.014Z,12.43
2017-10-12T19:26:15.590Z,12.80
2017-10-12T19:28:43.205Z,12.00
2017-10-12T19:31:10.749Z,12.17
2017-10-12T19:33:39.302Z,11.70
2017-10-12T19:36:06.859Z,11.93
2017-10-12T19:38:34.428Z,12.30
2017-10-12T19:43:29.595Z,10.93
2017-10-12T19:45:57.158Z,11.20
2017-10-12T19:48:24.749Z,11.60
2017-10-12T19:53:20.363Z,11.43
2017-10-12T19:55:47.922Z,12.13
2017-10-12T19:58:15.491Z,10.53
2017-10-12T20:00:43.059Z,11.50
2017-10-12T20:03:10.675Z,12.87
2017-10-12T20:05:38.194Z,12.17
2017-10-12T20:08:07.022Z,11.63
2017-10-12T20:10:34.671Z,13.17
2017-10-12T20:13:02.239Z,12.40
2017-10-12T20:15:29.890Z,11.60
2017-10-12T20:17:57.439Z,11.37
2017-10-12T20:20:25.006Z,13.30
2017-10-12T20:22:52.575Z,12.50
2017-10-12T20:25:20.109Z,12.50
2017-10-12T20:27:48.427Z,11.40
2017-10-12T20:30:16.015Z,11.27
2017-10-12T20:32:43.526Z,11.00
2017-10-12T20:35:11.379Z,13.67
2017-10-12T20:37:38.988Z,13.17
2017-10-12T20:40:06.629Z,12.23
2017-10-12T20:42:34.159Z,13.80
2017-10-12T20:45:01.914Z,16.00
2017-10-12T20:47:30.394Z,13.93
2017-10-12T20:49:57.995Z,14.00
2017-10-12T20:52:25.791Z,14.50
2017-10-12T20:57:20.925Z,10.57
2017-10-12T20:59:48.495Z,12.67
2017-10-12T21:04:44.485Z,11.03
2017-10-12T21:07:12.033Z,12.70
2017-10-12T21:09:40.014Z,12.93
2017-10-12T21:12:07.570Z,15.17
2017-10-12T21:14:35.174Z,13.97
2017-10-12T21:17:03.509Z,12.93
2017-10-12T21:19:31.074Z,15.10
2017-10-12T21:21:58.642Z,14.40
2017-10-12T21:24:26.333Z,14.30
2017-10-12T21:26:53.923Z,14.87
2017-10-12T21:29:21.673Z,15.60
2017-10-12T21:31:49.276Z,14.77
2017-10-12T21:34:16.840Z,14.60
2017-10-12T21:36:44.857Z,14.63
2017-10-12T21:39:13.183Z,13.37
2017-10-12T21:41:40.736Z,13.63
2017-10-12T21:44:08.675Z,14.77
2017-10-12T21:46:36.286Z,13.27
2017-10-12T21:49:04.137Z,13.10
2017-10-12T21:51:31.650Z,14.87
2017-10-12T21:53:59.245Z,14.13
2017-10-12T21:56:26.867Z,13.60
2017-10-12T21:58:54.432Z,14.17
2017-10-12T22:01:22.025Z,14.00
2017-10-12T22:03:49.581Z,14.30
2017-10-12T22:06:17.152Z,15.80
2017-10-12T22:08:44.792Z,16.93
2017-10-12T22:11:12.702Z,16.97
2017-10-12T22:13:40.261Z,15.53
2017-10-12T22:16:07.857Z,15.60
2017-10-12T22:18:36.503Z,14.90
2017-10-12T22:21:04.088Z,15.23
2017-10-12T22:23:32.838Z,14.30
2017-10-12T22:26:00.427Z,13.90
2017-10-12T22:28:28.054Z,13.37
2017-10-12T22:30:55.809Z,14.27
2017-10-12T22:33:23.333Z,12.70
2017-10-12T22:35:50.891Z,14.63
2017-10-12T22:38:18.503Z,14.23
2017-10-12T22:40:46.570Z,14.30
2017-10-12T22:43:14.091Z,14.50
2017-10-12T22:45:41.634Z,13.20
2017-10-12T22:48:09.249Z,12.33
2017-10-12T22:50:36.802Z,12.67
2017-10-12T22:53:04.388Z,13.80
2017-10-12T22:55:32.704Z,13.00
2017-10-12T22:58:00.266Z,13.57
2017-10-12T23:00:27.910Z,12.40
2017-10-12T23:02:55.478Z,13.50
2017-10-12T23:05:23.068Z,14.60
2017-10-12T23:07:50.628Z,14.13
2017-10-12T23:10:18.195Z,14.73
2017-10-12T23:12:46.119Z,16.67
2017-10-12T23:15:13.829Z,18.00
2017-10-12T23:17:41.375Z,16.93
2017-10-12T23:20:08.931Z,14.40
2017-10-12T23:22:36.485Z,14.10
2017-10-12T23:25:04.061Z,15.03
2017-10-12T23:27:31.622Z,14.20
2017-10-12T23:29:59.529Z,15.00
2017-10-12T23:32:27.859Z,13.57
2017-10-12T23:34:55.416Z,13.30
2017-10-12T23:37:23.000Z,14.00
2017-10-12T23:39:50.593Z,12.90
2017-10-12T23:42:18.953Z,13.83
2017-10-12T23:44:47.265Z,13.77
2017-10-12T23:47:14.849Z,13.00
2017-10-12T23:49:42.409Z,14.03
2017-10-12T23:52:10.016Z,12.20
2017-10-12T23:54:38.314Z,14.57
2017-10-12T23:57:06.139Z,14.20
2017-10-12T23:59:33.687Z,13.47
